SAS125 ENGM-ENEV
Flight info
| Callsign | SAS125 |
|---|---|
| Flight time | 1h 25m |
| Altitude | 37000 |
| Route | RIBBE6D RIBBE DCT GIGNI DCT SOMUB DCT TUXOT DCT VABOT DCT PENNO PENNO1L |
| Aircraft | A20N/M-SDE2E3FGHIRWXY/LB1 |
Departure
| Time | 2026-05-06 11:51 |
|---|---|
| Airport | Oslo-Gardermoen International Airport (ENGM) |
Arrival
| Time | 2026-05-06 13:16 |
|---|---|
| Airport | Harstad/Narvik Airport (ENEV) |
| Time | Latitude | Longitude | Altitude | Speed | Heading |
|---|---|---|---|---|---|
| 2026-05-06 11:24 | 60.19573 | 11.09350 | 685 ft | 0 kts | 196° |
| 2026-05-06 11:42 | 60.19588 | 11.09359 | 685 ft | 4 kts | 196° |
| 2026-05-06 11:43 | 60.19614 | 11.09374 | 683 ft | 4 kts | 196° |
| 2026-05-06 11:43 | 60.19620 | 11.09378 | 682 ft | 0 kts | 196° |
| 2026-05-06 11:45 | 60.19620 | 11.09377 | 682 ft | 0 kts | 198° |
| 2026-05-06 11:46 | 60.19618 | 11.09373 | 682 ft | 1 kts | 216° |
| 2026-05-06 11:46 | 60.19624 | 11.09341 | 682 ft | 3 kts | 319° |
| 2026-05-06 11:46 | 60.19652 | 11.09348 | 682 ft | 6 kts | 5° |
| 2026-05-06 11:46 | 60.19699 | 11.09278 | 683 ft | 11 kts | 296° |
| 2026-05-06 11:47 | 60.19721 | 11.09122 | 683 ft | 12 kts | 285° |
| 2026-05-06 11:47 | 60.19745 | 11.08956 | 681 ft | 12 kts | 285° |
| 2026-05-06 11:47 | 60.19766 | 11.08805 | 677 ft | 14 kts | 286° |
| 2026-05-06 11:47 | 60.19829 | 11.08698 | 679 ft | 13 kts | 8° |
| 2026-05-06 11:48 | 60.19921 | 11.08755 | 679 ft | 14 kts | 16° |
| 2026-05-06 11:48 | 60.20020 | 11.08812 | 680 ft | 15 kts | 16° |
| 2026-05-06 11:48 | 60.20126 | 11.08873 | 681 ft | 17 kts | 16° |
| 2026-05-06 11:48 | 60.20241 | 11.08941 | 681 ft | 18 kts | 16° |
| 2026-05-06 11:49 | 60.20365 | 11.09014 | 682 ft | 19 kts | 17° |
| 2026-05-06 11:49 | 60.20499 | 11.09092 | 682 ft | 19 kts | 14° |
| 2026-05-06 11:49 | 60.20607 | 11.09143 | 682 ft | 12 kts | 358° |
| 2026-05-06 11:49 | 60.20653 | 11.09021 | 682 ft | 10 kts | 284° |
| 2026-05-06 11:50 | 60.20673 | 11.08868 | 679 ft | 12 kts | 285° |
| 2026-05-06 11:50 | 60.20694 | 11.08699 | 679 ft | 11 kts | 274° |
| 2026-05-06 11:50 | 60.20658 | 11.08621 | 679 ft | 0 kts | 198° |
| 2026-05-06 11:50 | 60.20646 | 11.08613 | 679 ft | 8 kts | 198° |
| 2026-05-06 11:51 | 60.20337 | 11.08435 | 677 ft | 88 kts | 196° |
| 2026-05-06 11:51 | 60.19530 | 11.07972 | 675 ft | 152 kts | 195° |
| 2026-05-06 11:51 | 60.18443 | 11.07346 | 1185 ft | 163 kts | 197° |
| 2026-05-06 11:51 | 60.17330 | 11.06635 | 1954 ft | 172 kts | 204° |
| 2026-05-06 11:52 | 60.16366 | 11.05311 | 2458 ft | 175 kts | 232° |
| 2026-05-06 11:52 | 60.15746 | 11.03085 | 2821 ft | 193 kts | 250° |
| 2026-05-06 11:52 | 60.15239 | 11.00430 | 3079 ft | 217 kts | 248° |
| 2026-05-06 11:52 | 60.14618 | 10.97451 | 3360 ft | 242 kts | 249° |
| 2026-05-06 11:53 | 60.14314 | 10.94063 | 3980 ft | 253 kts | 272° |
| 2026-05-06 11:53 | 60.14573 | 10.90579 | 4777 ft | 257 kts | 280° |
| 2026-05-06 11:53 | 60.14902 | 10.87045 | 5648 ft | 259 kts | 280° |
| 2026-05-06 11:53 | 60.15403 | 10.83564 | 6470 ft | 263 kts | 298° |
| 2026-05-06 11:54 | 60.16605 | 10.80780 | 7208 ft | 269 kts | 324° |
| 2026-05-06 11:54 | 60.18358 | 10.79383 | 7938 ft | 276 kts | 351° |
| 2026-05-06 11:54 | 60.20265 | 10.79594 | 8678 ft | 283 kts | 13° |
| 2026-05-06 11:54 | 60.22181 | 10.80653 | 9433 ft | 287 kts | 14° |
| 2026-05-06 11:55 | 60.24122 | 10.81755 | 10116 ft | 293 kts | 14° |
| 2026-05-06 11:55 | 60.26153 | 10.82913 | 10318 ft | 315 kts | 13° |
| 2026-05-06 11:55 | 60.28345 | 10.84158 | 10550 ft | 333 kts | 13° |
| 2026-05-06 11:55 | 60.30603 | 10.85438 | 11087 ft | 340 kts | 13° |
| 2026-05-06 11:56 | 60.32863 | 10.86722 | 11784 ft | 342 kts | 12° |
| 2026-05-06 11:56 | 60.35168 | 10.88034 | 12448 ft | 345 kts | 12° |
| 2026-05-06 11:56 | 60.37498 | 10.89365 | 13067 ft | 350 kts | 11° |
| 2026-05-06 11:56 | 60.39857 | 10.90719 | 13682 ft | 354 kts | 11° |
| 2026-05-06 11:57 | 60.42234 | 10.92087 | 14199 ft | 358 kts | 10° |
| 2026-05-06 11:57 | 60.44653 | 10.93479 | 14716 ft | 363 kts | 10° |
| 2026-05-06 11:57 | 60.47106 | 10.94888 | 15185 ft | 367 kts | 9° |
| 2026-05-06 11:57 | 60.49552 | 10.96290 | 15648 ft | 371 kts | 9° |
| 2026-05-06 11:58 | 60.52057 | 10.97730 | 16160 ft | 376 kts | 9° |
| 2026-05-06 11:58 | 60.54594 | 10.99196 | 16698 ft | 380 kts | 9° |
| 2026-05-06 11:58 | 60.57153 | 11.00676 | 17220 ft | 384 kts | 9° |
| 2026-05-06 11:58 | 60.59745 | 11.02171 | 17787 ft | 389 kts | 8° |
| 2026-05-06 11:59 | 60.62370 | 11.03684 | 18288 ft | 394 kts | 8° |
| 2026-05-06 11:59 | 60.64989 | 11.05198 | 18747 ft | 398 kts | 8° |
| 2026-05-06 11:59 | 60.67671 | 11.06755 | 19216 ft | 402 kts | 8° |
| 2026-05-06 11:59 | 60.70376 | 11.08329 | 19696 ft | 406 kts | 7° |
| 2026-05-06 12:00 | 60.73110 | 11.09919 | 20172 ft | 410 kts | 7° |
| 2026-05-06 12:00 | 60.75875 | 11.11528 | 20645 ft | 414 kts | 7° |
| 2026-05-06 12:00 | 60.78673 | 11.13160 | 21108 ft | 418 kts | 7° |
| 2026-05-06 12:00 | 60.81487 | 11.14811 | 21565 ft | 422 kts | 7° |
| 2026-05-06 12:01 | 60.84297 | 11.16466 | 22017 ft | 426 kts | 7° |
| 2026-05-06 12:01 | 60.87163 | 11.18158 | 22538 ft | 430 kts | 7° |
| 2026-05-06 12:01 | 60.90059 | 11.19868 | 22928 ft | 435 kts | 6° |
| 2026-05-06 12:01 | 60.92990 | 11.21599 | 23336 ft | 440 kts | 6° |
| 2026-05-06 12:02 | 60.95948 | 11.23348 | 23699 ft | 444 kts | 6° |
| 2026-05-06 12:02 | 60.98923 | 11.25110 | 24046 ft | 447 kts | 6° |
| 2026-05-06 12:02 | 61.01925 | 11.26894 | 24393 ft | 450 kts | 6° |
| 2026-05-06 12:02 | 61.04946 | 11.28696 | 24722 ft | 453 kts | 6° |
| 2026-05-06 12:03 | 61.07946 | 11.30486 | 25037 ft | 456 kts | 6° |
| 2026-05-06 12:03 | 61.11004 | 11.32317 | 25377 ft | 458 kts | 6° |
| 2026-05-06 12:03 | 61.14078 | 11.34162 | 25708 ft | 461 kts | 6° |
| 2026-05-06 12:03 | 61.17165 | 11.36014 | 26032 ft | 463 kts | 6° |
| 2026-05-06 12:04 | 61.20276 | 11.37883 | 26351 ft | 466 kts | 6° |
| 2026-05-06 12:04 | 61.23403 | 11.39766 | 26679 ft | 469 kts | 6° |
| 2026-05-06 12:04 | 61.26543 | 11.41661 | 26973 ft | 472 kts | 6° |
| 2026-05-06 12:04 | 61.29706 | 11.43578 | 27287 ft | 475 kts | 7° |
| 2026-05-06 12:05 | 61.32882 | 11.45510 | 27600 ft | 477 kts | 7° |
| 2026-05-06 12:05 | 61.36091 | 11.47283 | 27937 ft | 474 kts | 1° |
| 2026-05-06 12:05 | 61.39318 | 11.48217 | 28241 ft | 465 kts | 353° |
| 2026-05-06 12:05 | 61.42527 | 11.48341 | 28544 ft | 460 kts | 348° |
| 2026-05-06 12:06 | 61.45741 | 11.48326 | 28887 ft | 463 kts | 348° |
| 2026-05-06 12:06 | 61.48971 | 11.48323 | 29219 ft | 465 kts | 349° |
| 2026-05-06 12:06 | 61.52213 | 11.48330 | 29611 ft | 465 kts | 349° |
| 2026-05-06 12:06 | 61.55451 | 11.48348 | 30037 ft | 465 kts | 349° |
| 2026-05-06 12:07 | 61.58682 | 11.48368 | 30420 ft | 464 kts | 349° |
| 2026-05-06 12:07 | 61.61881 | 11.48390 | 30793 ft | 464 kts | 349° |
| 2026-05-06 12:07 | 61.65101 | 11.48409 | 31191 ft | 462 kts | 350° |
| 2026-05-06 12:07 | 61.68313 | 11.48425 | 31578 ft | 461 kts | 350° |
| 2026-05-06 12:08 | 61.71518 | 11.48437 | 31973 ft | 460 kts | 351° |
| 2026-05-06 12:08 | 61.74703 | 11.48444 | 32424 ft | 459 kts | 351° |
| 2026-05-06 12:08 | 61.76840 | 11.48449 | 32686 ft | 458 kts | 352° |
| 2026-05-06 12:08 | 61.80029 | 11.48460 | 33073 ft | 458 kts | 352° |
| 2026-05-06 12:09 | 61.83206 | 11.48473 | 33484 ft | 457 kts | 353° |
| 2026-05-06 12:09 | 61.86385 | 11.48491 | 33851 ft | 456 kts | 354° |
| 2026-05-06 12:09 | 61.89556 | 11.48508 | 34159 ft | 456 kts | 354° |
| 2026-05-06 12:09 | 61.92730 | 11.48521 | 34439 ft | 455 kts | 354° |
| 2026-05-06 12:10 | 61.95900 | 11.48530 | 34700 ft | 455 kts | 354° |
| 2026-05-06 12:10 | 61.99079 | 11.48541 | 34934 ft | 456 kts | 355° |
| 2026-05-06 12:10 | 62.02223 | 11.49021 | 35157 ft | 460 kts | 0° |
| 2026-05-06 12:10 | 62.05405 | 11.49739 | 35422 ft | 460 kts | 1° |
| 2026-05-06 12:11 | 62.08595 | 11.50469 | 35645 ft | 461 kts | 1° |
| 2026-05-06 12:11 | 62.11786 | 11.51204 | 35859 ft | 461 kts | 1° |
| 2026-05-06 12:11 | 62.14980 | 11.51939 | 36091 ft | 461 kts | 1° |
| 2026-05-06 12:11 | 62.18173 | 11.52672 | 36293 ft | 460 kts | 1° |
| 2026-05-06 12:12 | 62.21362 | 11.53400 | 36492 ft | 461 kts | 1° |
| 2026-05-06 12:12 | 62.24553 | 11.54127 | 36706 ft | 461 kts | 1° |
| 2026-05-06 12:12 | 62.27737 | 11.54858 | 36893 ft | 461 kts | 1° |
| 2026-05-06 12:12 | 62.30897 | 11.55587 | 36953 ft | 464 kts | 1° |
| 2026-05-06 12:13 | 62.37354 | 11.57087 | 36951 ft | 468 kts | 1° |
| 2026-05-06 12:13 | 62.43838 | 11.58594 | 36953 ft | 469 kts | 1° |
| 2026-05-06 12:14 | 62.50344 | 11.60115 | 36953 ft | 469 kts | 1° |
| 2026-05-06 12:14 | 62.56803 | 11.61636 | 36956 ft | 469 kts | 1° |
| 2026-05-06 12:15 | 62.63304 | 11.63166 | 36907 ft | 470 kts | 1° |
| 2026-05-06 12:15 | 62.69810 | 11.64689 | 36947 ft | 470 kts | 2° |
| 2026-05-06 12:16 | 62.76319 | 11.66233 | 36955 ft | 470 kts | 2° |
| 2026-05-06 12:16 | 62.82829 | 11.67798 | 36967 ft | 470 kts | 2° |
| 2026-05-06 12:17 | 62.89301 | 11.69354 | 36986 ft | 470 kts | 2° |
| 2026-05-06 12:17 | 62.95813 | 11.70929 | 37018 ft | 470 kts | 2° |
| 2026-05-06 12:18 | 63.02311 | 11.72512 | 36984 ft | 469 kts | 2° |
| 2026-05-06 12:18 | 63.08802 | 11.74082 | 36979 ft | 469 kts | 2° |
| 2026-05-06 12:19 | 63.15301 | 11.75651 | 36987 ft | 469 kts | 2° |
| 2026-05-06 12:19 | 63.21751 | 11.77241 | 36988 ft | 470 kts | 2° |
| 2026-05-06 12:20 | 63.28253 | 11.78857 | 37006 ft | 469 kts | 2° |
| 2026-05-06 12:20 | 63.34732 | 11.80738 | 36995 ft | 472 kts | 10° |
| 2026-05-06 12:21 | 63.40994 | 11.85385 | 36992 ft | 475 kts | 17° |
| 2026-05-06 12:21 | 63.47227 | 11.90432 | 36986 ft | 475 kts | 17° |
| 2026-05-06 12:22 | 63.53402 | 11.95442 | 36985 ft | 475 kts | 17° |
| 2026-05-06 12:22 | 63.59636 | 12.00517 | 37003 ft | 475 kts | 17° |
| 2026-05-06 12:23 | 63.65849 | 12.05599 | 36990 ft | 475 kts | 17° |
| 2026-05-06 12:23 | 63.72021 | 12.10689 | 36987 ft | 475 kts | 17° |
| 2026-05-06 12:24 | 63.78235 | 12.15830 | 36982 ft | 475 kts | 17° |
| 2026-05-06 12:24 | 63.84442 | 12.20995 | 36997 ft | 475 kts | 17° |
| 2026-05-06 12:25 | 63.90648 | 12.26171 | 36992 ft | 474 kts | 17° |
| 2026-05-06 12:25 | 63.96847 | 12.31362 | 36984 ft | 474 kts | 17° |
| 2026-05-06 12:26 | 64.03013 | 12.36403 | 37012 ft | 473 kts | 16° |
| 2026-05-06 12:26 | 64.09258 | 12.41195 | 37008 ft | 473 kts | 15° |
| 2026-05-06 12:27 | 64.15494 | 12.45977 | 37003 ft | 472 kts | 16° |
| 2026-05-06 12:27 | 64.21720 | 12.50861 | 36984 ft | 472 kts | 16° |
| 2026-05-06 12:28 | 64.27911 | 12.55793 | 36976 ft | 473 kts | 16° |
| 2026-05-06 12:28 | 64.34137 | 12.60750 | 36964 ft | 473 kts | 16° |
| 2026-05-06 12:29 | 64.40358 | 12.65711 | 36954 ft | 473 kts | 16° |
| 2026-05-06 12:29 | 64.46549 | 12.70683 | 36977 ft | 473 kts | 16° |
| 2026-05-06 12:30 | 64.52773 | 12.75715 | 36972 ft | 473 kts | 17° |
| 2026-05-06 12:30 | 64.58993 | 12.80764 | 36959 ft | 473 kts | 17° |
| 2026-05-06 12:31 | 64.65210 | 12.85829 | 36955 ft | 472 kts | 17° |
| 2026-05-06 12:31 | 64.71372 | 12.90865 | 36950 ft | 472 kts | 17° |
| 2026-05-06 12:32 | 64.77568 | 12.96032 | 36966 ft | 472 kts | 18° |
| 2026-05-06 12:32 | 64.83729 | 13.01400 | 36954 ft | 472 kts | 18° |
| 2026-05-06 12:33 | 64.89876 | 13.06854 | 36948 ft | 472 kts | 18° |
| 2026-05-06 12:33 | 64.96031 | 13.12295 | 36947 ft | 472 kts | 18° |
| 2026-05-06 12:34 | 65.02159 | 13.17700 | 36940 ft | 471 kts | 18° |
| 2026-05-06 12:34 | 65.08322 | 13.23154 | 36948 ft | 471 kts | 18° |
| 2026-05-06 12:35 | 65.14461 | 13.28624 | 36942 ft | 471 kts | 18° |
| 2026-05-06 12:35 | 65.20558 | 13.34078 | 36938 ft | 470 kts | 18° |
| 2026-05-06 12:36 | 65.26686 | 13.39594 | 36920 ft | 471 kts | 18° |
| 2026-05-06 12:36 | 65.32814 | 13.45146 | 36914 ft | 471 kts | 18° |
| 2026-05-06 12:37 | 65.38950 | 13.50748 | 36934 ft | 471 kts | 19° |
| 2026-05-06 12:37 | 65.45041 | 13.56326 | 36919 ft | 470 kts | 18° |
| 2026-05-06 12:38 | 65.51165 | 13.61925 | 36918 ft | 470 kts | 18° |
| 2026-05-06 12:38 | 65.57296 | 13.67565 | 36910 ft | 470 kts | 19° |
| 2026-05-06 12:39 | 65.63383 | 13.73219 | 36927 ft | 470 kts | 19° |
| 2026-05-06 12:39 | 65.69498 | 13.78936 | 36918 ft | 470 kts | 19° |
| 2026-05-06 12:40 | 65.75568 | 13.84638 | 36911 ft | 469 kts | 19° |
| 2026-05-06 12:40 | 65.81660 | 13.90384 | 36914 ft | 469 kts | 19° |
| 2026-05-06 12:41 | 65.87747 | 13.96135 | 36900 ft | 469 kts | 19° |
| 2026-05-06 12:41 | 65.93838 | 14.01924 | 36915 ft | 469 kts | 19° |
| 2026-05-06 12:42 | 65.99871 | 14.07709 | 36910 ft | 468 kts | 19° |
| 2026-05-06 12:42 | 66.05947 | 14.13569 | 36905 ft | 468 kts | 20° |
| 2026-05-06 12:43 | 66.12013 | 14.19441 | 36905 ft | 468 kts | 20° |
| 2026-05-06 12:43 | 66.18074 | 14.25317 | 36904 ft | 467 kts | 20° |
| 2026-05-06 12:44 | 66.24093 | 14.31175 | 36915 ft | 467 kts | 20° |
| 2026-05-06 12:44 | 66.30151 | 14.37116 | 36913 ft | 467 kts | 20° |
| 2026-05-06 12:45 | 66.36165 | 14.43060 | 36908 ft | 467 kts | 20° |
| 2026-05-06 12:46 | 66.45233 | 14.52059 | 36904 ft | 467 kts | 20° |
| 2026-05-06 12:46 | 66.51240 | 14.58064 | 36901 ft | 467 kts | 20° |
| 2026-05-06 12:47 | 66.57270 | 14.64145 | 36912 ft | 467 kts | 20° |
| 2026-05-06 12:47 | 66.63310 | 14.70252 | 36898 ft | 466 kts | 20° |
| 2026-05-06 12:48 | 66.69299 | 14.76332 | 36892 ft | 466 kts | 20° |
| 2026-05-06 12:48 | 66.75318 | 14.82466 | 36884 ft | 466 kts | 20° |
| 2026-05-06 12:49 | 66.81347 | 14.88654 | 36885 ft | 466 kts | 20° |
| 2026-05-06 12:49 | 66.87361 | 14.94859 | 36811 ft | 467 kts | 20° |
| 2026-05-06 12:49 | 66.90324 | 14.97930 | 36563 ft | 466 kts | 21° |
| 2026-05-06 12:50 | 66.93335 | 15.01063 | 36319 ft | 465 kts | 21° |
| 2026-05-06 12:50 | 66.96335 | 15.04194 | 36073 ft | 465 kts | 21° |
| 2026-05-06 12:50 | 66.99332 | 15.07325 | 35833 ft | 465 kts | 21° |
| 2026-05-06 12:50 | 67.02336 | 15.10459 | 35595 ft | 464 kts | 21° |
| 2026-05-06 12:51 | 67.05303 | 15.13568 | 35288 ft | 461 kts | 21° |
| 2026-05-06 12:51 | 67.08263 | 15.16690 | 34773 ft | 460 kts | 21° |
| 2026-05-06 12:51 | 67.11221 | 15.19818 | 34285 ft | 459 kts | 21° |
| 2026-05-06 12:51 | 67.14176 | 15.22944 | 33754 ft | 458 kts | 21° |
| 2026-05-06 12:52 | 67.17082 | 15.26023 | 33225 ft | 455 kts | 21° |
| 2026-05-06 12:52 | 67.20003 | 15.29129 | 32722 ft | 452 kts | 21° |
| 2026-05-06 12:52 | 67.22904 | 15.32229 | 32220 ft | 449 kts | 21° |
| 2026-05-06 12:52 | 67.25777 | 15.35301 | 31724 ft | 445 kts | 21° |
| 2026-05-06 12:53 | 67.28631 | 15.38360 | 31231 ft | 442 kts | 21° |
| 2026-05-06 12:53 | 67.31464 | 15.41404 | 30748 ft | 439 kts | 21° |
| 2026-05-06 12:53 | 67.34269 | 15.44432 | 30273 ft | 435 kts | 22° |
| 2026-05-06 12:53 | 67.37025 | 15.47418 | 29784 ft | 432 kts | 22° |
| 2026-05-06 12:54 | 67.39782 | 15.50411 | 29290 ft | 427 kts | 22° |
| 2026-05-06 12:54 | 67.42504 | 15.53369 | 28853 ft | 420 kts | 22° |
| 2026-05-06 12:54 | 67.45195 | 15.56288 | 28421 ft | 415 kts | 22° |
| 2026-05-06 12:54 | 67.47842 | 15.59163 | 27987 ft | 410 kts | 22° |
| 2026-05-06 12:55 | 67.50457 | 15.62023 | 27572 ft | 405 kts | 22° |
| 2026-05-06 12:55 | 67.53048 | 15.64864 | 27157 ft | 400 kts | 22° |
| 2026-05-06 12:55 | 67.55577 | 15.67641 | 26752 ft | 397 kts | 22° |
| 2026-05-06 12:55 | 67.58111 | 15.70423 | 26347 ft | 393 kts | 22° |
| 2026-05-06 12:56 | 67.60628 | 15.73193 | 25936 ft | 391 kts | 22° |
| 2026-05-06 12:56 | 67.63133 | 15.75966 | 25522 ft | 389 kts | 22° |
| 2026-05-06 12:56 | 67.65622 | 15.78735 | 25112 ft | 387 kts | 22° |
| 2026-05-06 12:56 | 67.68096 | 15.81494 | 24681 ft | 386 kts | 22° |
| 2026-05-06 12:57 | 67.70567 | 15.84253 | 24253 ft | 385 kts | 22° |
| 2026-05-06 12:57 | 67.73026 | 15.87007 | 23829 ft | 384 kts | 22° |
| 2026-05-06 12:57 | 67.75476 | 15.89756 | 23430 ft | 382 kts | 22° |
| 2026-05-06 12:57 | 67.77890 | 15.92461 | 22910 ft | 372 kts | 22° |
| 2026-05-06 12:58 | 67.80202 | 15.95061 | 22478 ft | 361 kts | 22° |
| 2026-05-06 12:58 | 67.82503 | 15.97660 | 22049 ft | 358 kts | 22° |
| 2026-05-06 12:58 | 67.84784 | 16.00237 | 21632 ft | 354 kts | 22° |
| 2026-05-06 12:58 | 67.87041 | 16.02792 | 21223 ft | 351 kts | 22° |
| 2026-05-06 12:59 | 67.89284 | 16.05334 | 20814 ft | 349 kts | 22° |
| 2026-05-06 12:59 | 67.91495 | 16.07845 | 20388 ft | 342 kts | 22° |
| 2026-05-06 12:59 | 67.93690 | 16.10120 | 19991 ft | 335 kts | 15° |
| 2026-05-06 12:59 | 67.95934 | 16.11441 | 19606 ft | 328 kts | 9° |
| 2026-05-06 13:00 | 67.98159 | 16.12540 | 19229 ft | 322 kts | 9° |
| 2026-05-06 13:00 | 67.99619 | 16.13265 | 18983 ft | 319 kts | 9° |
| 2026-05-06 13:00 | 68.01784 | 16.14344 | 18615 ft | 314 kts | 9° |
| 2026-05-06 13:00 | 68.03919 | 16.15415 | 18252 ft | 309 kts | 9° |
| 2026-05-06 13:01 | 68.06017 | 16.16465 | 17872 ft | 305 kts | 9° |
| 2026-05-06 13:01 | 68.08093 | 16.17497 | 17504 ft | 300 kts | 9° |
| 2026-05-06 13:01 | 68.10149 | 16.18519 | 17151 ft | 299 kts | 9° |
| 2026-05-06 13:01 | 68.12188 | 16.19543 | 16802 ft | 298 kts | 9° |
| 2026-05-06 13:02 | 68.14197 | 16.20559 | 16457 ft | 296 kts | 9° |
| 2026-05-06 13:02 | 68.16215 | 16.21579 | 16111 ft | 294 kts | 9° |
| 2026-05-06 13:02 | 68.18227 | 16.22598 | 15767 ft | 292 kts | 9° |
| 2026-05-06 13:02 | 68.20222 | 16.23614 | 15424 ft | 291 kts | 9° |
| 2026-05-06 13:03 | 68.22205 | 16.24625 | 15089 ft | 290 kts | 9° |
| 2026-05-06 13:03 | 68.24184 | 16.25631 | 14750 ft | 289 kts | 9° |
| 2026-05-06 13:03 | 68.26163 | 16.26637 | 14411 ft | 288 kts | 9° |
| 2026-05-06 13:03 | 68.28132 | 16.27643 | 14080 ft | 288 kts | 9° |
| 2026-05-06 13:04 | 68.30095 | 16.28650 | 13741 ft | 287 kts | 9° |
| 2026-05-06 13:04 | 68.32056 | 16.29661 | 13382 ft | 286 kts | 9° |
| 2026-05-06 13:04 | 68.33979 | 16.30649 | 13044 ft | 284 kts | 9° |
| 2026-05-06 13:04 | 68.35919 | 16.31647 | 12710 ft | 283 kts | 9° |
| 2026-05-06 13:05 | 68.37850 | 16.32643 | 12375 ft | 281 kts | 9° |
| 2026-05-06 13:05 | 68.39777 | 16.33606 | 12057 ft | 280 kts | 6° |
| 2026-05-06 13:05 | 68.41706 | 16.33840 | 11715 ft | 277 kts | 358° |
| 2026-05-06 13:05 | 68.43635 | 16.33768 | 11378 ft | 276 kts | 358° |
| 2026-05-06 13:06 | 68.45553 | 16.33703 | 11052 ft | 275 kts | 358° |
| 2026-05-06 13:06 | 68.47463 | 16.33648 | 10714 ft | 275 kts | 358° |
| 2026-05-06 13:06 | 68.49374 | 16.33592 | 10374 ft | 274 kts | 358° |
| 2026-05-06 13:06 | 68.51283 | 16.33532 | 10041 ft | 275 kts | 358° |
| 2026-05-06 13:07 | 68.53180 | 16.33470 | 9701 ft | 276 kts | 358° |
| 2026-05-06 13:07 | 68.55101 | 16.33413 | 9338 ft | 276 kts | 358° |
| 2026-05-06 13:07 | 68.57026 | 16.33358 | 8994 ft | 276 kts | 358° |
| 2026-05-06 13:07 | 68.58939 | 16.33302 | 8653 ft | 275 kts | 358° |
| 2026-05-06 13:08 | 68.60853 | 16.33247 | 8312 ft | 273 kts | 358° |
| 2026-05-06 13:08 | 68.62749 | 16.33198 | 7973 ft | 272 kts | 358° |
| 2026-05-06 13:08 | 68.64646 | 16.33148 | 7637 ft | 272 kts | 359° |
| 2026-05-06 13:08 | 68.66516 | 16.33094 | 7304 ft | 272 kts | 359° |
| 2026-05-06 13:09 | 68.68409 | 16.33040 | 6967 ft | 271 kts | 359° |
| 2026-05-06 13:09 | 68.70284 | 16.33039 | 6727 ft | 266 kts | 4° |
| 2026-05-06 13:09 | 68.72048 | 16.34439 | 6423 ft | 265 kts | 30° |
| 2026-05-06 13:09 | 68.73402 | 16.37784 | 6183 ft | 259 kts | 56° |
| 2026-05-06 13:10 | 68.74091 | 16.42113 | 6099 ft | 238 kts | 79° |
| 2026-05-06 13:10 | 68.74232 | 16.46598 | 5997 ft | 233 kts | 87° |
| 2026-05-06 13:10 | 68.74303 | 16.51013 | 5885 ft | 233 kts | 88° |
| 2026-05-06 13:10 | 68.74375 | 16.55446 | 5773 ft | 228 kts | 87° |
| 2026-05-06 13:11 | 68.74384 | 16.59742 | 5649 ft | 218 kts | 101° |
| 2026-05-06 13:11 | 68.73735 | 16.63285 | 5549 ft | 209 kts | 137° |
| 2026-05-06 13:11 | 68.72464 | 16.65112 | 5262 ft | 208 kts | 174° |
| 2026-05-06 13:11 | 68.71014 | 16.65329 | 4947 ft | 209 kts | 178° |
| 2026-05-06 13:12 | 68.69561 | 16.65480 | 4655 ft | 208 kts | 178° |
| 2026-05-06 13:12 | 68.68128 | 16.65636 | 4370 ft | 208 kts | 178° |
| 2026-05-06 13:12 | 68.66702 | 16.65795 | 4106 ft | 201 kts | 178° |
| 2026-05-06 13:12 | 68.65356 | 16.65944 | 3921 ft | 188 kts | 178° |
| 2026-05-06 13:13 | 68.64052 | 16.66092 | 3639 ft | 187 kts | 178° |
| 2026-05-06 13:13 | 68.62766 | 16.66240 | 3333 ft | 187 kts | 178° |
| 2026-05-06 13:13 | 68.61464 | 16.66390 | 3001 ft | 186 kts | 178° |
| 2026-05-06 13:13 | 68.60190 | 16.66538 | 2678 ft | 181 kts | 178° |
| 2026-05-06 13:14 | 68.58945 | 16.66682 | 2352 ft | 175 kts | 178° |
| 2026-05-06 13:14 | 68.57751 | 16.66820 | 2055 ft | 167 kts | 178° |
| 2026-05-06 13:14 | 68.56617 | 16.66950 | 1767 ft | 159 kts | 178° |
| 2026-05-06 13:14 | 68.55537 | 16.67075 | 1467 ft | 152 kts | 178° |
| 2026-05-06 13:15 | 68.54494 | 16.67195 | 1187 ft | 148 kts | 178° |
| 2026-05-06 13:15 | 68.53469 | 16.67313 | 923 ft | 147 kts | 177° |
| 2026-05-06 13:15 | 68.52466 | 16.67428 | 660 ft | 145 kts | 177° |
| 2026-05-06 13:15 | 68.51461 | 16.67540 | 407 ft | 143 kts | 176° |
| 2026-05-06 13:16 | 68.50459 | 16.67673 | 154 ft | 142 kts | 176° |
| 2026-05-06 13:16 | 68.49517 | 16.67784 | 94 ft | 119 kts | 178° |
| 2026-05-06 13:16 | 68.48860 | 16.67850 | 94 ft | 70 kts | 178° |
| 2026-05-06 13:16 | 68.48550 | 16.67879 | 93 ft | 21 kts | 176° |
| 2026-05-06 13:17 | 68.48447 | 16.67947 | 94 ft | 16 kts | 122° |
| 2026-05-06 13:17 | 68.48443 | 16.68165 | 97 ft | 6 kts | 88° |
| 2026-05-06 13:17 | 68.48455 | 16.68236 | 100 ft | 5 kts | 44° |
| 2026-05-06 13:17 | 68.48531 | 16.68254 | 99 ft | 18 kts | 357° |
| 2026-05-06 13:18 | 68.48660 | 16.68236 | 91 ft | 18 kts | 358° |
| 2026-05-06 13:18 | 68.48799 | 16.68220 | 90 ft | 18 kts | 357° |
| 2026-05-06 13:18 | 68.48884 | 16.68254 | 88 ft | 12 kts | 51° |
| 2026-05-06 13:18 | 68.48892 | 16.68463 | 92 ft | 11 kts | 88° |
| 2026-05-06 13:19 | 68.48893 | 16.68667 | 93 ft | 12 kts | 89° |
| 2026-05-06 13:19 | 68.48920 | 16.68820 | 92 ft | 9 kts | 12° |
| 2026-05-06 13:19 | 68.48958 | 16.68817 | 92 ft | 4 kts | 358° |
| 2026-05-06 13:19 | 68.48980 | 16.68814 | 91 ft | 2 kts | 358° |
| 2026-05-06 13:20 | 68.48986 | 16.68814 | 91 ft | 0 kts | 358° |
| 2026-05-06 13:33 | 68.48986 | 16.68813 | 92 ft | 0 kts | 358° |
| 2026-05-06 13:33 | 68.48986 | 16.68814 | 92 ft | 0 kts | 358° |